Airfield :
LOGIN :

Register | Disclaimer

   EN    FR    IT 

 










Legend :    VFR   Marginal VFR   IFR   Intensive IFR   Very Intensive IFR
Visi :
Ceiling :
>= 8 km
>= 3000ft
5 to 8 km
1000 to 3000 ft
1500m to 5 km
500 to 1000 ft
800 to 1500m
200 to 500 ft
< 800m
< 200 ft
Symbols :   Thunderstorms  Fog  Heavy snow  Heavy precipitations  Wind > 20 kt
SIGMETs :     Misc.  Thunderstorms  Icing  Turbulence  Mountain Waves  Volcanic Ashes






- Airport Elevation : 1306 ft
- IATA code : ACH


LSZR - Alten Rhein

CURRENT METAR :
  • 051820Z 02004KT 9999 FEW025 BKN060 04/03 Q1025 NOSIG RMK R

EXPIRED METARs :
  • 051750Z 02003KT 9999 SCT025 BKN050 05/03 Q1025 NOSIG RMK N
  • 051720Z 02003KT 9999 SCT025 BKN050 05/03 Q1025 NOSIG RMK N
  • 051650Z VRB02KT 9999 SCT025 BKN060 04/04 Q1023 NOSIG RMK L
  • 051620Z VRB02KT 9999 SCT025 BKN060 04/04 Q1023 NOSIG RMK L
  • 051550Z VRB02KT 9999 BKN025 05/04 Q1023 NOSIG RMK K

TAF TAF LSZR
Valid from the 05 at 15:00 until the 06 at 00:00 UTC


051425Z 0515/0524 02004KT 9999 -RA FEW010 SCT012 OVC020
PROB30
TEMPO 0515/0518 SHRA BKN012
PROB40
TEMPO 0518/0524 02014G25KT
ATIS : +41 71 858 51 66



MET'MAP, your aeronautical weather chart ! - Copyright ORBIFLY December 2007 - Disclaimer

ORBIFLY MET'MAP TEAM :

Programming & Development : Alexandra Zaïnal
Concept & original design : Baudouin d'Aumeries
Assistance for programming : Marc-Olivier Méhu
Technical & hardware support : Manuel Goepfert

Contact : metmap@orbifly.com




SOURCES & CREDITS :

   NOAA